Time,TemperatureF,DewpointF,PressureIn,WindDirection,WindDirectionDegrees,WindSpeedMPH,WindSpeedGustMPH,Humidity,HourlyPrecipIn,Conditions,Clouds,dailyrainin,SoftwareType,DateUTC
2013-01-18 00:01:00,25.7,18.1,30.41,South,180,2.2,4.4,73,0.00,,,0.00,WUHU216HW,2013-01-18 07:01:00,
2013-01-18 00:06:00,25.7,18.1,30.41,South,180,0.0,4.4,73,0.00,,,0.00,WUHU216HW,2013-01-18 07:06:00,
2013-01-18 00:12:00,25.8,18.6,30.41,South,180,0.0,2.2,74,0.00,,,0.00,WUHU216HW,2013-01-18 07:12:00,
2013-01-18 00:17:00,25.8,18.1,30.41,West,270,0.0,2.2,73,0.00,,,0.00,WUHU216HW,2013-01-18 07:17:00,
2013-01-18 00:22:00,25.5,17.9,30.41,SSW,203,3.1,3.1,73,0.00,,,0.00,WUHU216HW,2013-01-18 07:22:00,
2013-01-18 00:27:00,24.9,17.4,30.41,West,270,0.0,3.1,73,0.00,,,0.00,WUHU216HW,2013-01-18 07:27:00,
2013-01-18 00:32:00,24.6,17.4,30.40,SSW,203,0.0,3.1,74,0.00,,,0.00,WUHU216HW,2013-01-18 07:32:00,
2013-01-18 00:37:00,24.6,17.4,30.40,SSW,203,0.0,3.1,74,0.00,,,0.00,WUHU216HW,2013-01-18 07:37:00,
2013-01-18 00:42:00,24.6,17.7,30.40,SSW,203,0.0,0.0,75,0.00,,,0.00,WUHU216HW,2013-01-18 07:42:00,
2013-01-18 00:47:00,24.4,17.6,30.41,SSW,203,0.0,0.0,75,0.00,,,0.00,WUHU216HW,2013-01-18 07:47:00,
2013-01-18 00:52:00,24.4,17.6,30.41,SSW,203,0.0,0.0,75,0.00,,,0.00,WUHU216HW,2013-01-18 07:52:00,
2013-01-18 00:57:00,24.4,17.6,30.41,SW,225,0.0,3.5,75,0.00,,,0.00,WUHU216HW,2013-01-18 07:57:00,
2013-01-18 01:02:00,24.6,17.7,30.41,WSW,248,0.0,3.5,75,0.00,,,0.00,WUHU216HW,2013-01-18 08:02:00,
2013-01-18 01:07:00,24.6,17.7,30.41,SW,225,0.0,0.0,75,0.00,,,0.00,WUHU216HW,2013-01-18 08:07:00,
2013-01-18 01:12:00,24.9,18.1,30.41,SSW,203,5.8,5.8,75,0.00,,,0.00,WUHU216HW,2013-01-18 08:12:00,
2013-01-18 01:17:00,24.9,18.1,30.41,SSW,203,0.0,5.8,75,0.00,,,0.00,WUHU216HW,2013-01-18 08:17:00,
2013-01-18 01:23:00,25.1,18.3,30.41,SSW,203,0.0,4.0,75,0.00,,,0.00,WUHU216HW,2013-01-18 08:23:00,
2013-01-18 01:28:00,25.3,18.4,30.41,SW,225,3.3,4.2,75,0.00,,,0.00,WUHU216HW,2013-01-18 08:28:00,
2013-01-18 01:33:00,25.5,18.6,30.40,SSW,203,3.3,4.2,75,0.00,,,0.00,WUHU216HW,2013-01-18 08:33:00,
2013-01-18 01:38:00,25.8,18.9,30.41,SSW,203,4.2,5.1,75,0.00,,,0.00,WUHU216HW,2013-01-18 08:38:00,
2013-01-18 01:43:00,26.2,19.0,30.40,SW,225,1.5,5.1,74,0.00,,,0.00,WUHU216HW,2013-01-18 08:43:00,
2013-01-18 01:48:00,26.4,19.1,30.40,SW,225,0.0,4.6,74,0.00,,,0.00,WUHU216HW,2013-01-18 08:48:00,
2013-01-18 01:53:00,26.6,19.3,30.40,SW,225,0.0,0.0,74,0.00,,,0.00,WUHU216HW,2013-01-18 08:53:00,
2013-01-18 01:58:00,26.6,19.0,30.40,SW,225,0.0,4.9,73,0.00,,,0.00,WUHU216HW,2013-01-18 08:58:00,
2013-01-18 02:03:00,26.4,18.8,30.40,SW,225,1.5,4.9,73,0.00,,,0.00,WUHU216HW,2013-01-18 09:03:00,
2013-01-18 02:08:00,26.0,18.5,30.40,SW,225,1.3,2.9,73,0.00,,,0.00,WUHU216HW,2013-01-18 09:08:00,
2013-01-18 02:13:00,25.8,18.3,30.40,SW,225,2.0,4.2,73,0.00,,,0.00,WUHU216HW,2013-01-18 09:13:00,
2013-01-18 02:18:00,26.2,19.0,30.40,SW,225,1.7,5.3,74,0.00,,,0.00,WUHU216HW,2013-01-18 09:18:00,
2013-01-18 02:23:00,27.1,19.5,30.39,SW,225,2.6,5.3,73,0.00,,,0.00,WUHU216HW,2013-01-18 09:23:00,
2013-01-18 02:28:00,27.6,20.1,30.39,SW,225,1.3,2.9,73,0.00,,,0.00,WUHU216HW,2013-01-18 09:28:00,
2013-01-18 02:33:00,28.2,20.3,30.39,SW,225,2.4,4.0,72,0.00,,,0.00,WUHU216HW,2013-01-18 09:33:00,
2013-01-18 02:38:00,28.7,20.8,30.38,SSW,203,4.0,6.2,72,0.00,,,0.00,WUHU216HW,2013-01-18 09:38:00,
2013-01-18 02:43:00,29.1,20.8,30.39,SSW,203,2.2,6.2,71,0.00,,,0.00,WUHU216HW,2013-01-18 09:43:00,
2013-01-18 02:48:00,29.4,20.9,30.39,SW,225,0.0,4.0,70,0.00,,,0.00,WUHU216HW,2013-01-18 09:48:00,
2013-01-18 02:53:00,29.3,20.3,30.40,SW,225,2.9,2.9,69,0.00,,,0.00,WUHU216HW,2013-01-18 09:53:00,
2013-01-18 02:58:00,29.1,20.2,30.39,SW,225,2.6,4.2,69,0.00,,,0.00,WUHU216HW,2013-01-18 09:58:00,
2013-01-18 03:04:00,29.1,20.2,30.39,SW,225,6.4,6.4,69,0.00,,,0.00,WUHU216HW,2013-01-18 10:04:00,
2013-01-18 03:09:00,29.3,20.3,30.38,SW,225,1.5,6.4,69,0.00,,,0.00,WUHU216HW,2013-01-18 10:09:00,
2013-01-18 03:14:00,29.6,20.7,30.38,SW,225,3.3,4.2,69,0.00,,,0.00,WUHU216HW,2013-01-18 10:14:00,
2013-01-18 03:19:00,29.8,20.5,30.38,SW,225,3.8,6.7,68,0.00,,,0.00,WUHU216HW,2013-01-18 10:19:00,
2013-01-18 03:24:00,30.0,20.6,30.38,SW,225,1.7,6.7,68,0.00,,,0.00,WUHU216HW,2013-01-18 10:24:00,
2013-01-18 03:29:00,30.0,20.6,30.38,SSW,203,2.9,5.5,68,0.00,,,0.00,WUHU216HW,2013-01-18 10:29:00,
2013-01-18 03:34:00,30.2,20.8,30.38,SW,225,2.4,5.3,68,0.00,,,0.00,WUHU216HW,2013-01-18 10:34:00,
2013-01-18 03:39:00,30.3,21.0,30.38,SSW,203,5.3,6.9,68,0.00,,,0.00,WUHU216HW,2013-01-18 10:39:00,
2013-01-18 03:44:00,30.9,21.2,30.38,WSW,248,2.4,6.9,67,0.00,,,0.00,WUHU216HW,2013-01-18 10:44:00,
2013-01-18 03:49:00,31.2,21.5,30.38,SW,225,8.0,8.0,67,0.00,,,0.00,WUHU216HW,2013-01-18 10:49:00,
2013-01-18 03:54:00,31.6,21.5,30.38,SW,225,1.7,8.0,66,0.00,,,0.00,WUHU216HW,2013-01-18 10:54:00,
2013-01-18 03:59:00,31.8,21.3,30.38,WSW,248,2.4,6.2,65,0.00,,,0.00,WUHU216HW,2013-01-18 10:59:00,
2013-01-18 04:04:00,31.4,21.2,30.38,SW,225,1.5,6.2,65,0.00,,,0.00,WUHU216HW,2013-01-18 11:04:00,
2013-01-18 04:09:00,30.9,20.4,30.38,WSW,248,2.9,4.6,65,0.00,,,0.00,WUHU216HW,2013-01-18 11:09:00,
2013-01-18 04:14:00,30.5,20.1,30.38,SW,225,5.1,7.8,65,0.00,,,0.00,WUHU216HW,2013-01-18 11:14:00,
2013-01-18 04:19:00,30.3,19.9,30.37,SSW,203,2.6,7.8,65,0.00,,,0.00,WUHU216HW,2013-01-18 11:19:00,
2013-01-18 04:24:00,30.7,20.6,30.37,SSW,203,1.3,8.9,66,0.00,,,0.00,WUHU216HW,2013-01-18 11:24:00,
2013-01-18 04:30:00,30.7,20.3,30.38,WSW,248,3.8,8.9,65,0.00,,,0.00,WUHU216HW,2013-01-18 11:30:00,
2013-01-18 04:35:00,30.9,20.4,30.37,SW,225,4.0,4.9,65,0.00,,,0.00,WUHU216HW,2013-01-18 11:35:00,
2013-01-18 04:40:00,31.2,20.4,30.37,SSW,203,7.8,7.8,64,0.00,,,0.00,WUHU216HW,2013-01-18 11:40:00,
2013-01-18 04:45:00,31.8,20.8,30.37,SW,225,3.5,9.1,64,0.00,,,0.00,WUHU216HW,2013-01-18 11:45:00,
2013-01-18 04:50:00,32.1,21.0,30.37,SW,225,4.9,9.1,63,0.00,,,0.00,WUHU216HW,2013-01-18 11:50:00,
2013-01-18 04:55:00,32.7,21.4,30.37,SW,225,2.6,4.9,63,0.00,,,0.00,WUHU216HW,2013-01-18 11:55:00,
2013-01-18 05:00:00,32.7,21.1,30.36,SW,225,4.6,4.6,62,0.00,,,0.00,WUHU216HW,2013-01-18 12:00:00,
2013-01-18 05:05:00,32.7,21.1,30.36,SW,225,6.7,8.9,62,0.00,,,0.00,WUHU216HW,2013-01-18 12:05:00,
2013-01-18 05:10:00,32.9,21.2,30.36,SW,225,2.6,8.9,62,0.00,,,0.00,WUHU216HW,2013-01-18 12:10:00,
2013-01-18 05:15:00,33.0,21.0,30.36,SW,225,3.8,4.6,61,0.00,,,0.00,WUHU216HW,2013-01-18 12:15:00,
2013-01-18 05:20:00,33.2,21.2,30.36,SSW,203,4.4,6.4,61,0.00,,,0.00,WUHU216HW,2013-01-18 12:20:00,
2013-01-18 05:25:00,33.4,21.4,30.35,SW,225,3.3,6.4,61,0.00,,,0.00,WUHU216HW,2013-01-18 12:25:00,
2013-01-18 05:30:00,33.6,21.2,30.35,West,270,3.1,10.5,60,0.00,,,0.00,WUHU216HW,2013-01-18 12:30:00,
2013-01-18 05:35:00,33.8,21.3,30.35,SSW,203,1.7,10.5,60,0.00,,,0.00,WUHU216HW,2013-01-18 12:35:00,
2013-01-18 05:40:00,33.9,21.1,30.35,WSW,248,5.8,7.6,59,0.00,,,0.00,WUHU216HW,2013-01-18 12:40:00,
2013-01-18 05:45:00,33.9,21.1,30.35,SW,225,2.9,7.6,59,0.00,,,0.00,WUHU216HW,2013-01-18 12:45:00,
2013-01-18 05:50:00,34.1,21.3,30.35,WSW,248,4.2,4.6,59,0.00,,,0.00,WUHU216HW,2013-01-18 12:50:00,
2013-01-18 05:55:00,33.9,21.1,30.35,West,270,0.0,4.2,59,0.00,,,0.00,WUHU216HW,2013-01-18 12:55:00,
2013-01-18 06:00:00,33.9,21.1,30.35,SW,225,2.0,3.3,59,0.00,,,0.00,WUHU216HW,2013-01-18 13:00:00,
2013-01-18 06:05:00,33.8,20.9,30.34,WSW,248,2.0,3.8,59,0.00,,,0.00,WUHU216HW,2013-01-18 13:05:00,
2013-01-18 06:10:00,33.6,20.7,30.34,SW,225,4.4,5.3,59,0.00,,,0.00,WUHU216HW,2013-01-18 13:10:00,
2013-01-18 06:15:00,33.6,20.7,30.34,SW,225,4.9,5.3,59,0.00,,,0.00,WUHU216HW,2013-01-18 13:15:00,
2013-01-18 06:20:00,33.6,20.7,30.34,WSW,248,2.6,7.3,59,0.00,,,0.00,WUHU216HW,2013-01-18 13:20:00,
2013-01-18 06:25:00,33.9,21.1,30.34,SW,225,0.0,7.3,59,0.00,,,0.00,WUHU216HW,2013-01-18 13:25:00,
2013-01-18 06:30:00,33.6,20.7,30.34,SW,225,1.3,6.9,59,0.00,,,0.00,WUHU216HW,2013-01-18 13:30:00,
2013-01-18 06:35:00,33.6,20.7,30.34,WSW,248,0.0,6.9,59,0.00,,,0.00,WUHU216HW,2013-01-18 13:35:00,
2013-01-18 06:40:00,32.9,20.3,30.34,SW,225,1.7,3.5,59,0.00,,,0.00,WUHU216HW,2013-01-18 13:40:00,
2013-01-18 06:45:00,32.5,20.2,30.33,WSW,248,2.4,4.2,60,0.00,,,0.00,WUHU216HW,2013-01-18 13:45:00,
2013-01-18 06:51:00,32.1,19.9,30.34,West,270,2.9,4.2,60,0.00,,,0.00,WUHU216HW,2013-01-18 13:51:00,
2013-01-18 06:56:00,31.6,19.7,30.33,SW,225,2.4,3.1,61,0.00,,,0.00,WUHU216HW,2013-01-18 13:56:00,
2013-01-18 07:01:00,31.2,19.4,30.33,SW,225,2.2,3.1,61,0.00,,,0.00,WUHU216HW,2013-01-18 14:01:00,
2013-01-18 07:06:00,31.2,19.4,30.33,SW,225,2.6,3.1,61,0.00,,,0.00,WUHU216HW,2013-01-18 14:06:00,
2013-01-18 07:11:00,31.6,19.7,30.33,SW,225,4.9,8.0,61,0.00,,,0.00,WUHU216HW,2013-01-18 14:11:00,
2013-01-18 07:16:00,32.1,20.2,30.33,SW,225,4.6,8.0,61,0.00,,,0.00,WUHU216HW,2013-01-18 14:16:00,
2013-01-18 07:21:00,32.5,20.6,30.33,SSW,203,4.0,6.7,61,0.00,,,0.00,WUHU216HW,2013-01-18 14:21:00,
2013-01-18 07:26:00,32.7,20.5,30.33,SW,225,3.1,12.3,61,0.00,,,0.00,WUHU216HW,2013-01-18 14:26:00,
2013-01-18 07:31:00,33.2,20.8,30.33,SSW,203,7.1,12.3,60,0.00,,,0.00,WUHU216HW,2013-01-18 14:31:00,
2013-01-18 07:36:00,33.4,21.0,30.33,SW,225,6.9,7.1,60,0.00,,,0.00,WUHU216HW,2013-01-18 14:36:00,
2013-01-18 07:41:00,33.6,20.7,30.33,SW,225,3.1,9.8,59,0.00,,,0.00,WUHU216HW,2013-01-18 14:41:00,
2013-01-18 07:46:00,33.8,20.9,30.33,SSW,203,2.9,9.8,59,0.00,,,0.00,WUHU216HW,2013-01-18 14:46:00,
2013-01-18 07:51:00,33.9,21.1,30.33,SSW,203,4.9,7.3,59,0.00,,,0.00,WUHU216HW,2013-01-18 14:51:00,
2013-01-18 07:56:00,34.1,21.3,30.33,SW,225,4.0,8.2,58,0.00,,,0.00,WUHU216HW,2013-01-18 14:56:00,
2013-01-18 08:01:00,34.3,21.0,30.33,SW,225,3.3,9.3,58,0.00,,,0.00,WUHU216HW,2013-01-18 15:01:00,
2013-01-18 08:06:00,34.3,21.0,30.33,SSW,203,2.0,9.3,58,0.00,,,0.00,WUHU216HW,2013-01-18 15:06:00,
2013-01-18 08:11:00,34.3,21.0,30.33,North,0,0.0,9.3,58,0.00,,,0.00,WUHU216HW,2013-01-18 15:11:00,
2013-01-18 08:16:00,34.3,20.6,30.33,SW,225,3.3,9.3,57,0.00,,,0.00,WUHU216HW,2013-01-18 15:16:00,
2013-01-18 08:22:00,34.3,20.6,30.34,SW,225,2.9,10.7,57,0.00,,,0.00,WUHU216HW,2013-01-18 15:22:00,
2013-01-18 08:27:00,34.3,20.6,30.33,SSW,203,5.5,10.7,57,0.00,,,0.00,WUHU216HW,2013-01-18 15:27:00,
2013-01-18 08:32:00,34.3,20.6,30.33,WSW,248,3.3,8.7,57,0.00,,,0.00,WUHU216HW,2013-01-18 15:32:00,
2013-01-18 08:37:00,34.3,20.6,30.33,SW,225,4.2,8.7,57,0.00,,,0.00,WUHU216HW,2013-01-18 15:37:00,
2013-01-18 08:42:00,34.3,20.6,30.34,SSW,203,4.4,8.2,57,0.00,,,0.00,WUHU216HW,2013-01-18 15:42:00,
2013-01-18 08:47:00,34.3,20.6,30.34,SW,225,2.0,8.2,57,0.00,,,0.00,WUHU216HW,2013-01-18 15:47:00,
2013-01-18 08:52:00,34.3,20.8,30.34,SW,225,8.0,8.0,57,0.00,,,0.00,WUHU216HW,2013-01-18 15:52:00,
2013-01-18 08:57:00,34.3,20.6,30.34,SW,225,10.2,10.2,57,0.00,,,0.00,WUHU216HW,2013-01-18 15:57:00,
2013-01-18 09:02:00,34.5,20.3,30.34,SW,225,2.4,10.2,56,0.00,,,0.00,WUHU216HW,2013-01-18 16:02:00,
2013-01-18 09:07:00,34.5,20.8,30.34,SW,225,2.0,8.5,57,0.00,,,0.00,WUHU216HW,2013-01-18 16:07:00,
2013-01-18 09:12:00,34.3,20.6,30.34,SW,225,1.7,3.3,57,0.00,,,0.00,WUHU216HW,2013-01-18 16:12:00,
2013-01-18 09:17:00,34.3,20.6,30.34,SW,225,1.3,3.5,57,0.00,,,0.00,WUHU216HW,2013-01-18 16:17:00,
2013-01-18 09:22:00,34.3,20.6,30.34,WSW,248,2.0,4.4,57,0.00,,,0.00,WUHU216HW,2013-01-18 16:22:00,
2013-01-18 09:27:00,34.3,20.6,30.34,SW,225,2.0,4.4,57,0.00,,,0.00,WUHU216HW,2013-01-18 16:27:00,
2013-01-18 09:32:00,34.3,20.6,30.34,West,270,3.1,3.1,57,0.00,,,0.00,WUHU216HW,2013-01-18 16:32:00,
2013-01-18 09:37:00,34.3,20.6,30.34,SW,225,2.6,5.1,57,0.00,,,0.00,WUHU216HW,2013-01-18 16:37:00,
2013-01-18 09:42:00,34.3,20.6,30.34,West,270,2.6,5.1,57,0.00,,,0.00,WUHU216HW,2013-01-18 16:42:00,
2013-01-18 09:47:00,34.5,20.8,30.34,West,270,0.6,5.1,57,0.00,,,0.00,WUHU216HW,2013-01-18 16:47:00,
2013-01-18 09:52:00,34.8,21.1,30.34,West,270,0.0,5.1,57,0.00,,,0.00,WUHU216HW,2013-01-18 16:52:00,
2013-01-18 09:57:00,34.8,21.1,30.34,SW,225,2.6,2.9,57,0.00,,,0.00,WUHU216HW,2013-01-18 16:57:00,
2013-01-18 10:02:00,34.8,21.1,30.34,SW,225,1.5,2.6,57,0.00,,,0.00,WUHU216HW,2013-01-18 17:02:00,
2013-01-18 10:07:00,34.8,21.1,30.33,SW,225,2.9,4.0,57,0.00,,,0.00,WUHU216HW,2013-01-18 17:07:00,
2013-01-18 10:13:00,35.2,21.0,30.34,WSW,248,2.4,4.6,56,0.00,,,0.00,WUHU216HW,2013-01-18 17:13:00,
2013-01-18 10:18:00,35.4,21.2,30.34,West,270,0.0,4.6,56,0.00,,,0.00,WUHU216HW,2013-01-18 17:18:00,
2013-01-18 10:23:00,35.9,21.7,30.34,WNW,293,1.1,4.6,56,0.00,,,0.00,WUHU216HW,2013-01-18 17:23:00,
2013-01-18 10:28:00,36.3,22.1,30.34,WSW,248,3.5,4.6,56,0.00,,,0.00,WUHU216HW,2013-01-18 17:28:00,
2013-01-18 10:33:00,36.8,22.1,30.34,North,0,0.0,3.5,55,0.00,,,0.00,WUHU216HW,2013-01-18 17:33:00,
2013-01-18 10:38:00,37.2,22.0,30.34,WSW,248,2.6,4.4,54,0.00,,,0.00,WUHU216HW,2013-01-18 17:38:00,
2013-01-18 10:43:00,37.2,22.4,30.34,WNW,293,6.2,6.2,55,0.00,,,0.00,WUHU216HW,2013-01-18 17:43:00,
2013-01-18 10:48:00,37.5,22.3,30.34,West,270,2.6,6.2,54,0.00,,,0.00,WUHU216HW,2013-01-18 17:48:00,
2013-01-18 10:53:00,37.5,22.3,30.35,West,270,2.6,4.2,54,0.00,,,0.00,WUHU216HW,2013-01-18 17:53:00,
2013-01-18 10:58:00,37.5,21.9,30.35,West,270,2.9,5.3,53,0.00,,,0.00,WUHU216HW,2013-01-18 17:58:00,
2013-01-18 11:03:00,37.2,22.0,30.34,West,270,0.0,5.3,54,0.00,,,0.00,WUHU216HW,2013-01-18 18:03:00,
2013-01-18 11:08:00,37.2,22.0,30.34,West,270,0.0,2.2,54,0.00,,,0.00,WUHU216HW,2013-01-18 18:08:00,
2013-01-18 11:13:00,37.0,21.8,30.34,West,270,2.0,3.1,54,0.00,,,0.00,WUHU216HW,2013-01-18 18:13:00,
2013-01-18 11:18:00,36.8,21.7,30.34,West,270,0.0,3.1,54,0.00,,,0.00,WUHU216HW,2013-01-18 18:18:00,
2013-01-18 11:23:00,36.6,21.5,30.35,West,270,0.0,2.4,54,0.00,,,0.00,WUHU216HW,2013-01-18 18:23:00,
2013-01-18 11:28:00,36.6,21.5,30.34,WNW,293,0.0,2.4,54,0.00,,,0.00,WUHU216HW,2013-01-18 18:28:00,
2013-01-18 11:33:00,36.5,21.3,30.34,WNW,293,0.0,2.2,54,0.00,,,0.00,WUHU216HW,2013-01-18 18:33:00,
2013-01-18 11:38:00,36.3,21.2,30.34,WNW,293,0.0,2.2,54,0.00,,,0.00,WUHU216HW,2013-01-18 18:38:00,
2013-01-18 11:44:00,36.3,21.2,30.34,WNW,293,0.0,0.0,54,0.00,,,0.00,WUHU216HW,2013-01-18 18:44:00,
2013-01-18 11:49:00,36.5,21.3,30.34,WNW,293,0.0,2.4,54,0.00,,,0.00,WUHU216HW,2013-01-18 18:49:00,
2013-01-18 11:54:00,36.5,21.8,30.34,WNW,293,1.1,2.4,55,0.00,,,0.00,WUHU216HW,2013-01-18 18:54:00,
2013-01-18 11:59:00,36.5,21.3,30.34,SW,225,0.0,1.3,54,0.00,,,0.00,WUHU216HW,2013-01-18 18:59:00,
2013-01-18 12:04:00,36.6,21.5,30.34,West,270,0.0,2.2,54,0.00,,,0.00,WUHU216HW,2013-01-18 19:04:00,
2013-01-18 12:09:00,37.0,22.3,30.33,West,270,0.0,2.2,55,0.00,,,0.00,WUHU216HW,2013-01-18 19:09:00,
2013-01-18 12:14:00,37.2,22.0,30.33,West,270,0.0,2.9,54,0.00,,,0.00,WUHU216HW,2013-01-18 19:14:00,
2013-01-18 12:19:00,37.2,22.0,30.33,West,270,0.0,2.9,54,0.00,,,0.00,WUHU216HW,2013-01-18 19:19:00,
2013-01-18 12:24:00,37.2,22.0,30.33,WSW,248,0.0,1.7,54,0.00,,,0.00,WUHU216HW,2013-01-18 19:24:00,
2013-01-18 12:29:00,37.4,22.2,30.33,West,270,2.4,2.4,54,0.00,,,0.00,WUHU216HW,2013-01-18 19:29:00,
2013-01-18 12:34:00,37.5,22.3,30.33,West,270,0.0,2.4,54,0.00,,,0.00,WUHU216HW,2013-01-18 19:34:00,
2013-01-18 12:39:00,37.5,22.3,30.33,SSW,203,2.4,2.4,54,0.00,,,0.00,WUHU216HW,2013-01-18 19:39:00,
2013-01-18 12:44:00,37.7,22.1,30.33,SW,225,2.0,4.6,53,0.00,,,0.00,WUHU216HW,2013-01-18 19:44:00,
2013-01-18 12:49:00,37.9,22.2,30.33,SW,225,1.3,4.6,53,0.00,,,0.00,WUHU216HW,2013-01-18 19:49:00,
2013-01-18 12:54:00,38.1,22.4,30.33,SW,225,0.0,4.6,53,0.00,,,0.00,WUHU216HW,2013-01-18 19:54:00,
2013-01-18 12:59:00,38.3,22.5,30.33,SW,225,0.0,2.0,53,0.00,,,0.00,WUHU216HW,2013-01-18 19:59:00,
2013-01-18 13:04:00,38.4,22.3,30.33,WSW,248,1.7,6.0,52,0.00,,,0.00,WUHU216HW,2013-01-18 20:04:00,
2013-01-18 13:09:00,38.6,22.4,30.33,SW,225,1.3,6.0,52,0.00,,,0.00,WUHU216HW,2013-01-18 20:09:00,
2013-01-18 13:14:00,38.8,22.6,30.33,SW,225,5.3,5.3,52,0.00,,,0.00,WUHU216HW,2013-01-18 20:14:00,
2013-01-18 13:19:00,38.8,22.2,30.33,WSW,248,3.1,6.0,51,0.00,,,0.00,WUHU216HW,2013-01-18 20:19:00,
2013-01-18 13:24:00,39.0,22.3,30.33,West,270,2.9,6.0,51,0.00,,,0.00,WUHU216HW,2013-01-18 20:24:00,
2013-01-18 13:29:00,39.0,22.3,30.33,West,270,0.0,4.2,51,0.00,,,0.00,WUHU216HW,2013-01-18 20:29:00,
2013-01-18 13:35:00,39.0,21.9,30.33,West,270,2.0,3.3,50,0.00,,,0.00,WUHU216HW,2013-01-18 20:35:00,
2013-01-18 13:40:00,39.0,21.9,30.33,West,270,3.8,5.8,50,0.00,,,0.00,WUHU216HW,2013-01-18 20:40:00,
2013-01-18 13:45:00,39.0,22.3,30.32,West,270,1.1,5.8,51,0.00,,,0.00,WUHU216HW,2013-01-18 20:45:00,
2013-01-18 13:50:00,39.0,22.3,30.32,NW,315,0.0,4.9,51,0.00,,,0.00,WUHU216HW,2013-01-18 20:50:00,
2013-01-18 13:55:00,38.8,21.7,30.32,WNW,293,3.8,4.9,50,0.00,,,0.00,WUHU216HW,2013-01-18 20:55:00,
2013-01-18 14:00:00,38.8,22.2,30.33,WNW,293,0.0,4.0,51,0.00,,,0.00,WUHU216HW,2013-01-18 21:00:00,
2013-01-18 14:05:00,38.6,22.0,30.33,WNW,293,0.0,2.0,51,0.00,,,0.00,WUHU216HW,2013-01-18 21:05:00,
2013-01-18 14:10:00,38.4,21.8,30.32,NW,315,0.0,2.0,51,0.00,,,0.00,WUHU216HW,2013-01-18 21:10:00,
2013-01-18 14:15:00,38.1,21.5,30.32,NW,315,0.0,0.0,51,0.00,,,0.00,WUHU216HW,2013-01-18 21:15:00,
2013-01-18 14:20:00,37.9,21.3,30.33,NW,315,0.0,0.0,51,0.00,,,0.00,WUHU216HW,2013-01-18 21:20:00,
2013-01-18 14:25:00,37.5,21.0,30.33,SW,225,0.0,0.0,51,0.00,,,0.00,WUHU216HW,2013-01-18 21:25:00,
2013-01-18 14:30:00,37.2,20.7,30.32,SW,225,0.0,2.2,51,0.00,,,0.00,WUHU216HW,2013-01-18 21:30:00,
2013-01-18 14:35:00,37.2,20.5,30.33,SW,225,0.0,2.2,51,0.00,,,0.00,WUHU216HW,2013-01-18 21:35:00,
2013-01-18 14:41:00,37.0,20.5,30.32,SW,225,0.0,3.3,51,0.00,,,0.00,WUHU216HW,2013-01-18 21:41:00,
2013-01-18 14:46:00,37.0,21.0,30.32,West,270,0.0,3.3,52,0.00,,,0.00,WUHU216HW,2013-01-18 21:46:00,
2013-01-18 14:51:00,37.2,21.1,30.32,SW,225,0.0,0.0,52,0.00,,,0.00,WUHU216HW,2013-01-18 21:51:00,
2013-01-18 14:56:00,37.5,21.5,30.32,West,270,0.0,2.6,52,0.00,,,0.00,WUHU216HW,2013-01-18 21:56:00,
2013-01-18 15:01:00,37.9,21.8,30.32,NW,315,5.3,5.3,52,0.00,,,0.00,WUHU216HW,2013-01-18 22:01:00,
2013-01-18 15:06:00,38.3,21.7,30.32,West,270,0.0,5.3,51,0.00,,,0.00,WUHU216HW,2013-01-18 22:06:00,
2013-01-18 15:11:00,38.8,21.7,30.32,West,270,2.0,4.6,50,0.00,,,0.00,WUHU216HW,2013-01-18 22:11:00,
2013-01-18 15:16:00,39.0,21.9,30.32,West,270,1.3,4.0,50,0.00,,,0.00,WUHU216HW,2013-01-18 22:16:00,
2013-01-18 15:21:00,39.3,21.7,30.32,WSW,248,0.0,3.5,49,0.00,,,0.00,WUHU216HW,2013-01-18 22:21:00,
2013-01-18 15:26:00,39.5,21.9,30.32,SSW,203,0.0,5.3,49,0.00,,,0.00,WUHU216HW,2013-01-18 22:26:00,
2013-01-18 15:31:00,39.5,21.9,30.32,West,270,0.0,5.3,49,0.00,,,0.00,WUHU216HW,2013-01-18 22:31:00,
2013-01-18 15:36:00,39.7,22.0,30.32,WSW,248,0.0,2.2,49,0.00,,,0.00,WUHU216HW,2013-01-18 22:36:00,
2013-01-18 15:41:00,39.7,22.0,30.32,WSW,248,5.5,5.8,49,0.00,,,0.00,WUHU216HW,2013-01-18 22:41:00,
2013-01-18 15:46:00,39.7,21.5,30.33,West,270,3.8,5.8,48,0.00,,,0.00,WUHU216HW,2013-01-18 22:46:00,
2013-01-18 15:51:00,39.7,21.5,30.33,WSW,248,3.8,6.9,48,0.00,,,0.00,WUHU216HW,2013-01-18 22:51:00,
2013-01-18 15:56:00,39.7,21.0,30.32,WSW,248,2.6,6.9,47,0.00,,,0.00,WUHU216HW,2013-01-18 22:56:00,
2013-01-18 16:01:00,39.7,21.5,30.32,SW,225,6.7,6.7,48,0.00,,,0.00,WUHU216HW,2013-01-18 23:01:00,
2013-01-18 16:06:00,39.7,21.0,30.33,SW,225,4.2,7.8,47,0.00,,,0.00,WUHU216HW,2013-01-18 23:06:00,
2013-01-18 16:11:00,39.7,21.0,30.33,WNW,293,0.0,7.8,47,0.00,,,0.00,WUHU216HW,2013-01-18 23:11:00,
2013-01-18 16:17:00,39.5,20.8,30.33,West,270,0.0,3.1,47,0.00,,,0.00,WUHU216HW,2013-01-18 23:17:00,
2013-01-18 16:22:00,39.5,20.8,30.34,SW,225,2.6,4.4,47,0.00,,,0.00,WUHU216HW,2013-01-18 23:22:00,
2013-01-18 16:27:00,39.5,20.8,30.35,SSW,203,5.8,5.8,47,0.00,,,0.00,WUHU216HW,2013-01-18 23:27:00,
2013-01-18 16:32:00,39.5,20.8,30.35,West,270,2.6,5.8,47,0.00,,,0.00,WUHU216HW,2013-01-18 23:32:00,
2013-01-18 16:37:00,39.5,20.8,30.34,SW,225,2.2,3.1,47,0.00,,,0.00,WUHU216HW,2013-01-18 23:37:00,
2013-01-18 16:42:00,39.5,20.3,30.34,WSW,248,1.3,3.5,46,0.00,,,0.00,WUHU216HW,2013-01-18 23:42:00,
2013-01-18 16:47:00,39.3,20.6,30.35,SW,225,2.6,4.2,47,0.00,,,0.00,WUHU216HW,2013-01-18 23:47:00,
2013-01-18 16:52:00,39.2,20.0,30.34,SW,225,2.4,4.4,46,0.00,,,0.00,WUHU216HW,2013-01-18 23:52:00,
2013-01-18 16:57:00,39.0,20.3,30.34,North,0,0.0,6.4,47,0.00,,,0.00,WUHU216HW,2013-01-18 23:57:00,
2013-01-18 17:02:00,39.0,20.3,30.34,SW,225,2.4,6.4,47,0.00,,,0.00,WUHU216HW,2013-01-19 00:02:00,
2013-01-18 17:07:00,38.8,20.2,30.33,SW,225,7.3,7.6,47,0.00,,,0.00,WUHU216HW,2013-01-19 00:07:00,
2013-01-18 17:12:00,38.3,19.8,30.33,SW,225,5.1,7.6,47,0.00,,,0.00,WUHU216HW,2013-01-19 00:12:00,
2013-01-18 17:17:00,37.9,19.4,30.34,SW,225,2.6,10.2,47,0.00,,,0.00,WUHU216HW,2013-01-19 00:17:00,
2013-01-18 17:22:00,37.5,19.0,30.34,SW,225,3.8,10.2,47,0.00,,,0.00,WUHU216HW,2013-01-19 00:22:00,
2013-01-18 17:27:00,37.2,19.2,30.35,SW,225,2.9,8.2,48,0.00,,,0.00,WUHU216HW,2013-01-19 00:27:00,
2013-01-18 17:33:00,37.0,18.9,30.35,SW,225,5.5,8.2,48,0.00,,,0.00,WUHU216HW,2013-01-19 00:33:00,
2013-01-18 17:38:00,36.6,18.7,30.35,SW,225,9.6,10.2,48,0.00,,,0.00,WUHU216HW,2013-01-19 00:38:00,
2013-01-18 17:43:00,36.5,18.6,30.35,West,270,3.1,10.2,48,0.00,,,0.00,WUHU216HW,2013-01-19 00:43:00,
2013-01-18 17:48:00,36.3,18.4,30.35,SW,225,2.4,7.6,48,0.00,,,0.00,WUHU216HW,2013-01-19 00:48:00,
2013-01-18 17:53:00,36.1,18.3,30.35,SW,225,1.5,7.6,48,0.00,,,0.00,WUHU216HW,2013-01-19 00:53:00,
2013-01-18 17:58:00,35.9,18.1,30.35,SW,225,6.7,6.7,48,0.00,,,0.00,WUHU216HW,2013-01-19 00:58:00,
2013-01-18 18:04:00,35.7,17.9,30.34,SSW,203,15.8,15.8,48,0.00,,,0.00,WUHU216HW,2013-01-19 01:04:00,
2013-01-18 18:09:00,35.6,18.3,30.33,WSW,248,6.4,15.8,49,0.00,,,0.00,WUHU216HW,2013-01-19 01:09:00,
2013-01-18 18:14:00,35.4,18.1,30.34,SSW,203,4.9,14.9,49,0.00,,,0.00,WUHU216HW,2013-01-19 01:14:00,
2013-01-18 18:19:00,35.4,18.1,30.34,SSW,203,2.4,14.9,49,0.00,,,0.00,WUHU216HW,2013-01-19 01:19:00,
2013-01-18 18:24:00,35.4,18.1,30.35,SSW,203,5.3,8.5,49,0.00,,,0.00,WUHU216HW,2013-01-19 01:24:00,
2013-01-18 18:29:00,35.2,17.4,30.35,SSW,203,5.8,11.4,48,0.00,,,0.00,WUHU216HW,2013-01-19 01:29:00,
2013-01-18 18:34:00,35.2,17.4,30.35,SW,225,8.7,11.4,48,0.00,,,0.00,WUHU216HW,2013-01-19 01:34:00,
2013-01-18 18:39:00,34.8,17.0,30.36,SW,225,3.3,8.7,48,0.00,,,0.00,WUHU216HW,2013-01-19 01:39:00,
2013-01-18 18:44:00,34.7,16.9,30.36,SW,225,3.8,7.6,48,0.00,,,0.00,WUHU216HW,2013-01-19 01:44:00,
2013-01-18 18:49:00,34.5,17.2,30.36,SSW,203,1.3,7.6,49,0.00,,,0.00,WUHU216HW,2013-01-19 01:49:00,
2013-01-18 18:54:00,34.3,17.0,30.36,SW,225,4.0,4.0,49,0.00,,,0.00,WUHU216HW,2013-01-19 01:54:00,
2013-01-18 18:59:00,34.1,16.8,30.37,SSW,203,4.6,4.6,49,0.00,,,0.00,WUHU216HW,2013-01-19 01:59:00,
2013-01-18 19:04:00,33.8,16.5,30.37,SW,225,4.2,4.6,49,0.00,,,0.00,WUHU216HW,2013-01-19 02:04:00,
2013-01-18 19:09:00,33.6,16.3,30.37,SSW,203,5.5,5.5,49,0.00,,,0.00,WUHU216HW,2013-01-19 02:09:00,
2013-01-18 19:14:00,33.4,16.7,30.37,SSW,203,4.4,5.5,50,0.00,,,0.00,WUHU216HW,2013-01-19 02:14:00,
2013-01-18 19:19:00,33.2,16.5,30.37,SW,225,2.6,6.2,50,0.00,,,0.00,WUHU216HW,2013-01-19 02:19:00,
2013-01-18 19:24:00,33.2,16.5,30.37,SSW,203,4.4,6.2,50,0.00,,,0.00,WUHU216HW,2013-01-19 02:24:00,
2013-01-18 19:29:00,33.0,16.4,30.37,SW,225,2.2,5.5,50,0.00,,,0.00,WUHU216HW,2013-01-19 02:29:00,
2013-01-18 19:34:00,32.9,16.2,30.37,South,180,5.3,5.3,50,0.00,,,0.00,WUHU216HW,2013-01-19 02:34:00,
2013-01-18 19:39:00,32.7,16.0,30.37,SSW,203,4.0,5.8,50,0.00,,,0.00,WUHU216HW,2013-01-19 02:39:00,
2013-01-18 19:44:00,32.7,16.0,30.37,SSW,203,4.6,5.8,50,0.00,,,0.00,WUHU216HW,2013-01-19 02:44:00,
2013-01-18 19:49:00,32.5,16.3,30.37,SW,225,3.3,6.0,51,0.00,,,0.00,WUHU216HW,2013-01-19 02:49:00,
2013-01-18 19:55:00,32.3,16.1,30.37,SSW,203,4.9,8.2,51,0.00,,,0.00,WUHU216HW,2013-01-19 02:55:00,
2013-01-18 20:00:00,32.5,16.3,30.37,SW,225,2.4,8.2,51,0.00,,,0.00,WUHU216HW,2013-01-19 03:00:00,
2013-01-18 20:05:00,32.5,16.3,30.38,SSW,203,4.4,6.2,51,0.00,,,0.00,WUHU216HW,2013-01-19 03:05:00,
2013-01-18 20:10:00,32.5,16.3,30.38,SW,225,4.6,5.1,51,0.00,,,0.00,WUHU216HW,2013-01-19 03:10:00,
2013-01-18 20:15:00,32.5,16.3,30.38,SW,225,7.1,7.1,51,0.00,,,0.00,WUHU216HW,2013-01-19 03:15:00,
2013-01-18 20:20:00,32.5,16.3,30.38,SSW,203,8.7,8.7,51,0.00,,,0.00,WUHU216HW,2013-01-19 03:20:00,
2013-01-18 20:25:00,32.5,16.3,30.38,SSW,203,4.9,8.7,51,0.00,,,0.00,WUHU216HW,2013-01-19 03:25:00,
2013-01-18 20:30:00,32.7,16.5,30.38,SSW,203,6.7,7.3,51,0.00,,,0.00,WUHU216HW,2013-01-19 03:30:00,
2013-01-18 20:35:00,32.7,16.5,30.38,SSW,203,7.8,9.3,51,0.00,,,0.00,WUHU216HW,2013-01-19 03:35:00,
2013-01-18 20:40:00,32.7,16.5,30.38,SW,225,2.9,9.3,51,0.00,,,0.00,WUHU216HW,2013-01-19 03:40:00,
2013-01-18 20:45:00,32.7,16.0,30.38,SSW,203,7.6,7.6,50,0.00,,,0.00,WUHU216HW,2013-01-19 03:45:00,
2013-01-18 20:50:00,32.7,16.0,30.38,SW,225,5.3,7.6,50,0.00,,,0.00,WUHU216HW,2013-01-19 03:50:00,
2013-01-18 20:56:00,32.7,16.0,30.38,SSW,203,6.0,7.6,50,0.00,,,0.00,WUHU216HW,2013-01-19 03:56:00,
2013-01-18 21:01:00,32.7,16.0,30.38,SSW,203,7.3,7.8,50,0.00,,,0.00,WUHU216HW,2013-01-19 04:01:00,
2013-01-18 21:06:00,32.7,16.0,30.39,SW,225,3.8,7.8,50,0.00,,,0.00,WUHU216HW,2013-01-19 04:06:00,
2013-01-18 21:11:00,32.7,16.5,30.39,SSW,203,3.3,4.9,51,0.00,,,0.00,WUHU216HW,2013-01-19 04:11:00,
2013-01-18 21:16:00,32.3,16.1,30.39,SSW,203,2.6,3.3,51,0.00,,,0.00,WUHU216HW,2013-01-19 04:16:00,
2013-01-18 21:21:00,32.1,16.0,30.39,SSW,203,2.4,4.2,51,0.00,,,0.00,WUHU216HW,2013-01-19 04:21:00,
2013-01-18 21:27:00,31.6,15.5,30.39,SW,225,3.3,6.2,51,0.00,,,0.00,WUHU216HW,2013-01-19 04:27:00,
2013-01-18 21:32:00,31.6,15.5,30.39,SSW,203,3.1,6.2,51,0.00,,,0.00,WUHU216HW,2013-01-19 04:32:00,
2013-01-18 21:37:00,31.6,15.9,30.39,SSW,203,3.3,6.7,52,0.00,,,0.00,WUHU216HW,2013-01-19 04:37:00,
2013-01-18 21:42:00,31.2,15.6,30.39,SW,225,6.4,6.7,52,0.00,,,0.00,WUHU216HW,2013-01-19 04:42:00,
2013-01-18 21:47:00,31.2,15.6,30.39,SW,225,0.0,6.4,52,0.00,,,0.00,WUHU216HW,2013-01-19 04:47:00,
2013-01-18 21:52:00,31.1,15.4,30.39,SW,225,0.0,2.2,52,0.00,,,0.00,WUHU216HW,2013-01-19 04:52:00,
2013-01-18 21:57:00,30.7,15.1,30.39,SW,225,0.0,0.0,52,0.00,,,0.00,WUHU216HW,2013-01-19 04:57:00,
2013-01-18 22:00:00,30.5,15.3,30.39,SW,225,0.0,0.0,53,0.00,,,0.00,WUHU216HW,2013-01-19 05:00:00,
2013-01-18 22:01:00,30.3,15.2,30.39,SW,225,0.0,0.0,53,0.00,,,0.00,WUHU216HW,2013-01-19 05:01:00,
2013-01-18 22:02:00,30.3,15.2,30.39,SW,225,0.0,0.0,53,0.00,,,0.00,WUHU216HW,2013-01-19 05:02:00,
2013-01-18 22:04:00,30.2,15.0,30.39,SW,225,0.0,0.0,53,0.00,,,0.00,WUHU216HW,2013-01-19 05:04:00,
2013-01-18 22:09:00,29.8,15.1,30.39,SW,225,3.5,3.5,54,0.00,,,0.00,WUHU216HW,2013-01-19 05:09:00,
2013-01-18 22:14:00,29.3,14.6,30.40,SW,225,0.0,3.5,54,0.00,,,0.00,WUHU216HW,2013-01-19 05:14:00,
2013-01-18 22:19:00,28.9,14.3,30.40,SW,225,0.0,1.7,54,0.00,,,0.00,WUHU216HW,2013-01-19 05:19:00,
2013-01-18 22:25:00,28.4,13.6,30.40,SW,225,1.5,1.5,54,0.00,,,0.00,WUHU216HW,2013-01-19 05:25:00,
2013-01-18 22:30:00,27.6,13.5,30.40,SW,225,0.0,2.6,55,0.00,,,0.00,WUHU216HW,2013-01-19 05:30:00,
2013-01-18 22:35:00,27.3,13.6,30.40,SW,225,0.0,2.6,56,0.00,,,0.00,WUHU216HW,2013-01-19 05:35:00,
2013-01-18 22:40:00,26.9,13.6,30.40,SW,225,0.0,0.8,57,0.00,,,0.00,WUHU216HW,2013-01-19 05:40:00,
2013-01-18 22:45:00,26.4,13.1,30.40,SW,225,1.5,2.6,57,0.00,,,0.00,WUHU216HW,2013-01-19 05:45:00,
2013-01-18 22:50:00,26.4,13.1,30.40,SW,225,3.8,3.8,57,0.00,,,0.00,WUHU216HW,2013-01-19 05:50:00,
2013-01-18 22:55:00,26.2,13.3,30.40,SW,225,4.0,4.0,58,0.00,,,0.00,WUHU216HW,2013-01-19 05:55:00,
2013-01-18 23:00:00,26.2,13.3,30.41,SW,225,1.3,4.0,58,0.00,,,0.00,WUHU216HW,2013-01-19 06:00:00,
2013-01-18 23:05:00,26.4,13.5,30.41,SW,225,0.0,3.3,58,0.00,,,0.00,WUHU216HW,2013-01-19 06:05:00,
2013-01-18 23:10:00,26.4,13.5,30.41,SW,225,0.0,2.0,58,0.00,,,0.00,WUHU216HW,2013-01-19 06:10:00,
2013-01-18 23:15:00,26.4,13.5,30.41,SW,225,2.6,2.6,58,0.00,,,0.00,WUHU216HW,2013-01-19 06:15:00,
2013-01-18 23:20:00,26.4,13.9,30.41,SW,225,0.0,2.6,59,0.00,,,0.00,WUHU216HW,2013-01-19 06:20:00,
2013-01-18 23:25:00,26.6,14.1,30.41,SW,225,0.0,2.6,59,0.00,,,0.00,WUHU216HW,2013-01-19 06:25:00,
2013-01-18 23:30:00,26.7,14.3,30.41,SW,225,0.0,2.0,59,0.00,,,0.00,WUHU216HW,2013-01-19 06:30:00,
2013-01-18 23:35:00,26.6,14.1,30.42,SW,225,0.0,1.3,59,0.00,,,0.00,WUHU216HW,2013-01-19 06:35:00,
2013-01-18 23:40:00,26.4,14.3,30.41,SW,225,0.8,3.1,60,0.00,,,0.00,WUHU216HW,2013-01-19 06:40:00,
2013-01-18 23:45:00,26.4,14.3,30.42,SW,225,1.3,3.1,60,0.00,,,0.00,WUHU216HW,2013-01-19 06:45:00,
2013-01-18 23:50:00,26.2,14.5,30.42,SW,225,0.0,2.9,61,0.00,,,0.00,WUHU216HW,2013-01-19 06:50:00,
2013-01-18 23:55:00,26.0,14.3,30.42,SW,225,0.0,2.9,61,0.00,,,0.00,WUHU216HW,2013-01-19 06:55:00,